createdAt,value
2018-02-16T00:01:02.839Z,51.54
2018-02-16T00:03:31.354Z,52.11
2018-02-16T00:05:59.865Z,51.21
2018-02-16T00:08:28.325Z,51.20
2018-02-16T00:10:56.845Z,51.42
2018-02-16T00:13:25.302Z,51.43
2018-02-16T00:15:53.773Z,51.13
2018-02-16T00:18:22.282Z,51.61
2018-02-16T00:20:50.791Z,51.26
2018-02-16T00:23:19.293Z,50.82
2018-02-16T00:25:47.758Z,50.78
2018-02-16T00:28:16.267Z,51.05
2018-02-16T00:30:44.743Z,50.59
2018-02-16T00:33:13.256Z,50.61
2018-02-16T00:35:41.757Z,50.80
2018-02-16T00:38:10.260Z,50.72
2018-02-16T00:40:38.758Z,50.56
2018-02-16T00:43:07.239Z,50.80
2018-02-16T00:45:35.722Z,50.52
2018-02-16T00:48:04.210Z,50.80
2018-02-16T00:50:32.709Z,50.97
2018-02-16T00:53:01.186Z,51.26
2018-02-16T00:55:30.321Z,52.27
2018-02-16T00:57:58.838Z,51.36
2018-02-16T01:00:27.319Z,51.25
2018-02-16T01:02:55.781Z,52.24
2018-02-16T01:05:24.290Z,52.99
2018-02-16T01:07:52.797Z,52.15
2018-02-16T01:10:21.317Z,52.06
2018-02-16T01:12:49.785Z,51.82
2018-02-16T01:15:18.270Z,52.05
2018-02-16T01:17:46.768Z,52.77
2018-02-16T01:20:15.283Z,52.61
2018-02-16T01:22:43.793Z,52.29
2018-02-16T01:25:12.314Z,52.43
2018-02-16T01:27:40.793Z,52.82
2018-02-16T01:30:09.248Z,52.93
2018-02-16T01:32:37.745Z,53.63
2018-02-16T01:35:06.213Z,52.61
2018-02-16T01:37:34.722Z,52.91
2018-02-16T01:40:03.283Z,52.50
2018-02-16T01:42:31.822Z,53.15
2018-02-16T01:45:00.339Z,53.35
2018-02-16T01:47:28.869Z,53.31
2018-02-16T01:50:06.085Z,53.52
2018-02-16T01:52:34.590Z,53.71
2018-02-16T01:55:03.063Z,53.67
2018-02-16T01:57:31.570Z,54.23
2018-02-16T02:00:00.110Z,53.37
2018-02-16T02:02:28.619Z,53.24
2018-02-16T02:04:57.119Z,52.91
2018-02-16T02:07:25.632Z,53.12
2018-02-16T02:09:54.098Z,53.20
2018-02-16T02:12:22.616Z,53.24
2018-02-16T02:14:51.122Z,54.18
2018-02-16T02:17:19.625Z,53.82
2018-02-16T02:19:48.138Z,53.48
2018-02-16T02:22:16.610Z,53.50
2018-02-16T02:24:45.106Z,54.09
2018-02-16T02:27:13.613Z,54.69
2018-02-16T02:29:42.058Z,54.81
2018-02-16T02:32:10.606Z,54.53
2018-02-16T02:34:39.088Z,54.99
2018-02-16T02:37:07.567Z,54.54
2018-02-16T02:39:36.086Z,54.64
2018-02-16T02:42:04.563Z,54.69
2018-02-16T02:44:33.101Z,54.58
2018-02-16T02:47:01.606Z,54.63
2018-02-16T02:49:30.075Z,54.65
2018-02-16T02:51:58.578Z,54.56
2018-02-16T02:54:27.041Z,54.06
2018-02-16T02:56:55.553Z,53.80
2018-02-16T02:59:24.014Z,53.63
2018-02-16T03:01:52.525Z,53.63
2018-02-16T03:04:21.034Z,53.36
2018-02-16T03:06:49.501Z,53.54
2018-02-16T03:09:18.109Z,53.70
2018-02-16T03:11:46.623Z,53.93
2018-02-16T03:14:15.094Z,53.56
2018-02-16T03:16:43.606Z,54.37
2018-02-16T03:19:12.089Z,54.17
2018-02-16T03:21:40.561Z,54.68
2018-02-16T03:24:09.069Z,54.42
2018-02-16T03:26:37.556Z,55.05
2018-02-16T03:29:06.168Z,55.08
2018-02-16T03:31:34.646Z,54.02
2018-02-16T03:34:03.117Z,54.35
2018-02-16T03:36:31.623Z,54.20
2018-02-16T03:39:00.126Z,54.11
2018-02-16T03:41:28.630Z,54.20
2018-02-16T03:43:57.104Z,54.23
2018-02-16T03:46:25.605Z,54.35
2018-02-16T03:48:54.075Z,54.68
2018-02-16T03:51:22.573Z,54.52
2018-02-16T03:53:51.069Z,54.26
2018-02-16T03:56:19.582Z,54.36
2018-02-16T03:58:48.050Z,54.25
2018-02-16T04:01:16.541Z,53.73
2018-02-16T04:03:45.129Z,54.11
2018-02-16T04:06:13.612Z,54.13
2018-02-16T04:08:42.113Z,53.52
2018-02-16T04:11:10.613Z,53.33
2018-02-16T04:13:39.073Z,53.08
2018-02-16T04:16:07.581Z,53.61
2018-02-16T04:18:36.050Z,53.26
2018-02-16T04:21:04.517Z,53.29
2018-02-16T04:23:33.054Z,53.46
2018-02-16T04:26:01.515Z,53.25
2018-02-16T04:28:30.018Z,52.80
2018-02-16T04:30:58.536Z,52.99
2018-02-16T04:33:27.011Z,52.76
2018-02-16T04:35:55.521Z,52.39
2018-02-16T04:38:23.993Z,52.24
2018-02-16T04:40:52.469Z,52.61
2018-02-16T04:43:20.973Z,52.22
2018-02-16T04:45:49.414Z,51.97
2018-02-16T04:48:17.873Z,51.83
2018-02-16T04:50:46.364Z,51.80
2018-02-16T04:53:14.849Z,51.88
2018-02-16T04:55:43.357Z,51.93
2018-02-16T04:58:11.861Z,51.78
2018-02-16T05:00:40.333Z,51.55
2018-02-16T05:03:08.800Z,51.67
2018-02-16T05:05:37.303Z,51.13
2018-02-16T05:08:05.786Z,51.09
2018-02-16T05:10:34.282Z,51.07
2018-02-16T05:13:02.789Z,51.19
2018-02-16T05:15:31.894Z,50.81
2018-02-16T05:18:00.355Z,50.25
2018-02-16T05:20:28.864Z,50.08
2018-02-16T05:22:57.360Z,50.40
2018-02-16T05:25:25.862Z,50.36
2018-02-16T05:27:54.373Z,50.58
2018-02-16T05:30:22.879Z,50.24
2018-02-16T05:32:51.356Z,49.88
2018-02-16T05:35:19.858Z,50.04
2018-02-16T05:37:48.321Z,49.98
2018-02-16T05:40:16.822Z,50.09
2018-02-16T05:42:45.290Z,50.00
2018-02-16T05:45:13.804Z,49.87
2018-02-16T05:47:42.283Z,49.75
2018-02-16T05:50:10.773Z,49.59
2018-02-16T05:52:39.252Z,49.84
2018-02-16T05:55:07.775Z,49.90
2018-02-16T05:57:36.286Z,49.97
2018-02-16T06:00:04.770Z,49.87
2018-02-16T06:02:33.279Z,49.76
2018-02-16T06:05:01.741Z,49.47
2018-02-16T06:07:30.269Z,49.88
2018-02-16T06:09:58.790Z,49.70
2018-02-16T06:12:27.297Z,49.67
2018-02-16T06:14:55.760Z,49.42
2018-02-16T06:17:24.237Z,49.43
2018-02-16T06:19:52.741Z,49.36
2018-02-16T06:22:21.222Z,49.18
2018-02-16T06:24:49.753Z,49.40
2018-02-16T06:27:18.236Z,49.08
2018-02-16T06:29:46.743Z,49.16
2018-02-16T06:32:15.218Z,49.20
2018-02-16T06:34:43.734Z,49.23
2018-02-16T06:37:12.243Z,49.33
2018-02-16T06:39:40.769Z,49.37
2018-02-16T06:42:09.278Z,49.22
2018-02-16T06:44:37.787Z,48.82
2018-02-16T06:47:06.246Z,48.59
2018-02-16T06:49:34.763Z,48.16
2018-02-16T06:52:03.290Z,47.95
2018-02-16T06:54:31.769Z,47.66
2018-02-16T06:57:00.284Z,47.65
2018-02-16T06:59:28.804Z,47.57
2018-02-16T07:01:57.310Z,47.30
2018-02-16T07:04:25.831Z,47.04
2018-02-16T07:06:54.303Z,46.66
2018-02-16T07:09:22.787Z,46.53
2018-02-16T07:11:51.281Z,46.86
2018-02-16T07:14:19.794Z,46.54
2018-02-16T07:16:48.295Z,46.09
2018-02-16T07:19:16.814Z,46.49
2018-02-16T07:21:45.287Z,46.44
2018-02-16T07:24:13.793Z,46.30
2018-02-16T07:26:42.270Z,46.15
2018-02-16T07:29:10.772Z,46.48
2018-02-16T07:31:39.278Z,46.55
2018-02-16T07:34:07.744Z,45.91
2018-02-16T07:36:36.238Z,45.95
2018-02-16T07:39:04.756Z,45.94
2018-02-16T07:41:33.315Z,46.34
2018-02-16T07:44:01.800Z,46.41
2018-02-16T07:46:30.305Z,45.74
2018-02-16T07:48:58.763Z,46.43
2018-02-16T07:51:27.266Z,45.80
2018-02-16T07:53:55.734Z,46.23
2018-02-16T07:56:24.234Z,46.02
2018-02-16T07:58:52.707Z,45.83
2018-02-16T08:01:21.217Z,45.29
2018-02-16T08:03:49.796Z,45.67
2018-02-16T08:06:18.313Z,45.49
2018-02-16T08:08:46.813Z,45.58
2018-02-16T08:11:15.317Z,45.15
2018-02-16T08:13:43.786Z,45.09
2018-02-16T08:16:12.286Z,44.19
2018-02-16T08:18:40.841Z,44.94
2018-02-16T08:21:09.314Z,45.32
2018-02-16T08:23:37.784Z,44.33
2018-02-16T08:26:06.290Z,44.23
2018-02-16T08:28:34.782Z,43.80
2018-02-16T08:31:03.271Z,44.17
2018-02-16T08:33:31.726Z,43.56
2018-02-16T08:36:00.237Z,43.34
2018-02-16T08:38:28.718Z,42.81
2018-02-16T08:40:57.197Z,42.87
2018-02-16T08:43:25.696Z,42.06
2018-02-16T08:45:54.172Z,41.66
2018-02-16T08:48:22.682Z,41.13
2018-02-16T08:50:51.157Z,41.43
2018-02-16T08:53:19.698Z,41.20
2018-02-16T08:55:48.665Z,40.84
2018-02-16T08:58:17.286Z,41.13
2018-02-16T09:00:45.780Z,40.63
2018-02-16T09:03:14.304Z,40.48
2018-02-16T09:05:42.798Z,40.20
2018-02-16T09:08:11.309Z,40.77
2018-02-16T09:10:39.781Z,40.29
2018-02-16T09:13:08.248Z,40.25
2018-02-16T09:15:36.813Z,39.85
2018-02-16T09:18:05.296Z,39.94
2018-02-16T09:20:33.814Z,39.48
2018-02-16T09:23:02.335Z,39.28
2018-02-16T09:25:30.840Z,39.18
2018-02-16T09:27:59.394Z,39.12
2018-02-16T09:30:27.873Z,38.60
2018-02-16T09:32:56.385Z,37.91
2018-02-16T09:35:24.861Z,38.50
2018-02-16T09:37:53.425Z,38.87
2018-02-16T09:40:22.541Z,38.73
2018-02-16T09:42:51.291Z,38.67
2018-02-16T09:45:19.780Z,38.83
2018-02-16T09:47:48.281Z,39.32
2018-02-16T09:50:16.829Z,39.60
2018-02-16T09:52:45.302Z,39.61
2018-02-16T09:55:13.814Z,39.44
2018-02-16T09:57:42.302Z,39.00
2018-02-16T10:00:10.769Z,39.48
2018-02-16T10:02:39.290Z,39.26
2018-02-16T10:05:07.759Z,39.49
2018-02-16T10:07:36.233Z,39.66
2018-02-16T10:10:04.746Z,38.97
2018-02-16T10:12:33.253Z,39.90
2018-02-16T10:15:01.732Z,39.89
2018-02-16T10:17:30.282Z,40.52
2018-02-16T10:19:58.759Z,40.08
2018-02-16T10:22:27.277Z,39.48
2018-02-16T10:24:55.794Z,39.93
2018-02-16T10:27:24.286Z,39.68
2018-02-16T10:29:52.820Z,39.78
2018-02-16T10:32:21.293Z,39.85
2018-02-16T10:34:49.787Z,39.78
2018-02-16T10:37:18.295Z,39.59
2018-02-16T10:39:46.784Z,39.43
2018-02-16T10:42:15.299Z,39.58
2018-02-16T10:44:43.794Z,39.05
2018-02-16T10:47:12.273Z,38.91
2018-02-16T10:49:40.810Z,39.49
2018-02-16T10:52:09.322Z,38.87
2018-02-16T10:54:37.790Z,39.22
2018-02-16T10:57:06.306Z,39.54
2018-02-16T10:59:34.801Z,39.18
2018-02-16T11:02:08.659Z,39.44
2018-02-16T11:04:42.789Z,39.47
2018-02-16T11:07:16.786Z,39.50
2018-02-16T11:09:45.274Z,39.65
2018-02-16T11:12:13.806Z,39.72
2018-02-16T11:14:42.310Z,39.47
2018-02-16T11:17:10.797Z,39.78
2018-02-16T11:19:39.306Z,39.69
2018-02-16T11:22:07.778Z,39.75
2018-02-16T11:24:36.290Z,39.59
2018-02-16T11:27:04.778Z,39.52
2018-02-16T11:29:33.306Z,39.65
2018-02-16T11:32:01.795Z,40.57
2018-02-16T11:34:30.278Z,40.17
2018-02-16T11:36:58.758Z,40.04
2018-02-16T11:39:27.285Z,40.24
2018-02-16T11:41:55.747Z,40.05
2018-02-16T11:44:24.254Z,40.02
2018-02-16T11:46:52.734Z,40.46
2018-02-16T11:49:21.253Z,40.17
2018-02-16T11:51:49.797Z,40.03
2018-02-16T11:54:18.268Z,39.40
2018-02-16T11:56:46.778Z,39.38
2018-02-16T11:59:15.361Z,39.37
2018-02-16T12:01:43.860Z,39.20
2018-02-16T12:04:12.375Z,38.65
2018-02-16T12:06:40.893Z,39.38
2018-02-16T12:09:09.367Z,39.21
2018-02-16T12:11:37.852Z,39.50
2018-02-16T12:14:06.378Z,39.27
2018-02-16T12:16:34.853Z,39.65
2018-02-16T12:19:03.343Z,39.32
2018-02-16T12:21:31.868Z,39.61
2018-02-16T12:24:00.373Z,39.80
2018-02-16T12:26:28.893Z,39.74
2018-02-16T12:28:57.361Z,40.24
2018-02-16T12:31:25.898Z,39.67
2018-02-16T12:33:54.398Z,39.96
2018-02-16T12:36:23.169Z,40.34
2018-02-16T12:38:51.678Z,40.22
2018-02-16T12:41:20.194Z,40.08
2018-02-16T12:43:48.670Z,39.90
2018-02-16T12:46:17.149Z,39.73
2018-02-16T12:48:45.675Z,39.91
2018-02-16T12:51:14.150Z,39.52
2018-02-16T12:53:42.658Z,39.51
2018-02-16T12:56:11.142Z,39.31
2018-02-16T12:58:39.649Z,38.62
2018-02-16T13:01:08.165Z,39.44
2018-02-16T13:03:36.673Z,39.19
2018-02-16T13:06:05.189Z,38.70
2018-02-16T13:08:33.713Z,39.17
2018-02-16T13:11:02.186Z,39.01
2018-02-16T13:13:30.699Z,38.76
2018-02-16T13:15:59.278Z,38.96
2018-02-16T13:18:27.811Z,39.00
2018-02-16T13:20:56.288Z,38.93
2018-02-16T13:23:25.654Z,38.34
2018-02-16T13:25:54.235Z,38.56
2018-02-16T13:28:22.729Z,38.89
2018-02-16T13:30:51.304Z,39.14
2018-02-16T13:33:19.813Z,39.81
2018-02-16T13:35:48.283Z,39.62
2018-02-16T13:38:16.817Z,39.95
2018-02-16T13:40:45.384Z,40.34
2018-02-16T13:43:13.859Z,39.91
2018-02-16T13:45:42.369Z,39.78
2018-02-16T13:48:10.943Z,39.02
2018-02-16T13:50:39.469Z,38.79
2018-02-16T13:53:07.985Z,39.01
2018-02-16T13:55:36.574Z,38.96
2018-02-16T13:58:05.091Z,38.92
2018-02-16T14:00:33.604Z,38.96
2018-02-16T14:03:02.154Z,38.21
2018-02-16T14:05:30.674Z,38.49
2018-02-16T14:07:59.226Z,38.03
2018-02-16T14:10:27.702Z,37.75
2018-02-16T14:12:56.231Z,38.68
2018-02-16T14:15:24.734Z,38.78
2018-02-16T14:17:53.214Z,38.84
2018-02-16T14:20:21.730Z,38.61
2018-02-16T14:22:50.215Z,38.68
2018-02-16T14:25:18.726Z,38.93
2018-02-16T14:27:47.209Z,38.72
2018-02-16T14:30:15.717Z,39.21
2018-02-16T14:32:44.216Z,39.18
2018-02-16T14:35:12.737Z,39.43
2018-02-16T14:37:41.262Z,39.36
2018-02-16T14:40:09.735Z,39.14
2018-02-16T14:42:38.206Z,39.40
2018-02-16T14:45:06.751Z,39.31
2018-02-16T14:47:35.231Z,39.01
2018-02-16T14:50:03.787Z,39.14
2018-02-16T14:52:32.262Z,39.51
2018-02-16T14:55:00.770Z,39.38
2018-02-16T14:57:29.310Z,39.89
2018-02-16T14:59:57.832Z,39.89
2018-02-16T15:02:26.317Z,40.27
2018-02-16T15:04:54.838Z,40.35
2018-02-16T15:07:23.361Z,40.26
2018-02-16T15:09:51.844Z,40.37
2018-02-16T15:12:20.318Z,40.71
2018-02-16T15:14:48.853Z,40.40
2018-02-16T15:17:17.371Z,40.47
2018-02-16T15:19:45.930Z,40.47
2018-02-16T15:22:14.465Z,40.45
2018-02-16T15:24:42.956Z,40.49
2018-02-16T15:27:11.785Z,40.53
2018-02-16T15:29:40.708Z,40.77
2018-02-16T15:32:09.780Z,40.73
2018-02-16T15:34:39.916Z,40.79
2018-02-16T15:37:08.955Z,40.76
2018-02-16T15:39:40.218Z,40.87
2018-02-16T15:42:09.222Z,40.97
2018-02-16T15:44:39.369Z,41.11
2018-02-16T15:47:08.617Z,41.14
2018-02-16T15:49:38.271Z,41.19
2018-02-16T15:52:06.997Z,41.37
2018-02-16T15:54:35.777Z,41.46
2018-02-16T15:57:04.601Z,41.53
2018-02-16T15:59:33.332Z,41.79
2018-02-16T16:02:01.819Z,42.07
2018-02-16T16:04:30.381Z,42.29
2018-02-16T16:06:58.855Z,42.33
2018-02-16T16:09:27.380Z,42.35
2018-02-16T16:11:55.848Z,42.37
2018-02-16T16:14:24.412Z,42.74
2018-02-16T16:16:52.886Z,42.92
2018-02-16T16:19:21.404Z,43.04
2018-02-16T16:21:49.878Z,43.12
2018-02-16T16:24:18.377Z,43.35
2018-02-16T16:26:46.874Z,43.50
2018-02-16T16:29:15.330Z,43.87
2018-02-16T16:31:44.570Z,44.77
2018-02-16T16:34:13.037Z,44.40
2018-02-16T16:36:41.542Z,44.39
2018-02-16T16:39:10.020Z,44.61
2018-02-16T16:41:38.546Z,45.87
2018-02-16T16:44:07.017Z,45.35
2018-02-16T16:46:35.522Z,45.77
2018-02-16T16:49:04.062Z,45.76
2018-02-16T16:51:32.565Z,46.02
2018-02-16T16:54:01.065Z,46.91
2018-02-16T16:56:29.534Z,47.27
2018-02-16T16:58:58.029Z,47.69
2018-02-16T17:01:26.499Z,47.31
2018-02-16T17:03:55.018Z,47.42
2018-02-16T17:06:23.482Z,47.49
2018-02-16T17:08:52.010Z,48.51
2018-02-16T17:11:20.536Z,49.46
2018-02-16T17:13:48.998Z,49.16
2018-02-16T17:16:17.469Z,48.61
2018-02-16T17:18:45.962Z,50.71
2018-02-16T17:21:14.418Z,48.90
2018-02-16T17:23:42.910Z,49.08
2018-02-16T17:26:11.380Z,48.89
2018-02-16T17:28:39.882Z,48.95
2018-02-16T17:31:08.388Z,48.76
2018-02-16T17:33:36.866Z,48.94
2018-02-16T17:36:05.386Z,49.93
2018-02-16T17:38:33.855Z,50.17
2018-02-16T17:41:02.334Z,50.18
2018-02-16T17:43:30.774Z,51.76
2018-02-16T17:45:59.272Z,50.52
2018-02-16T17:48:27.734Z,50.29
2018-02-16T17:50:56.197Z,50.34
2018-02-16T17:53:24.709Z,50.59
2018-02-16T17:55:53.170Z,50.57
2018-02-16T17:58:21.698Z,51.61
2018-02-16T18:00:50.166Z,51.63
2018-02-16T18:03:18.633Z,51.93
2018-02-16T18:05:47.135Z,56.23
2018-02-16T18:08:15.597Z,54.89
2018-02-16T18:10:44.097Z,53.57
2018-02-16T18:13:12.562Z,53.63
2018-02-16T18:15:41.066Z,52.58
2018-02-16T18:18:09.518Z,52.73
2018-02-16T18:20:38.074Z,52.85
2018-02-16T18:23:06.600Z,52.91
2018-02-16T18:25:35.075Z,55.73
2018-02-16T18:28:03.538Z,55.38
2018-02-16T18:30:32.042Z,54.63
2018-02-16T18:33:00.537Z,54.10
2018-02-16T18:35:29.001Z,54.04
2018-02-16T18:37:58.321Z,53.88
2018-02-16T18:40:26.802Z,54.02
2018-02-16T18:42:55.316Z,53.99
2018-02-16T18:45:23.837Z,54.18
2018-02-16T18:47:52.305Z,54.00
2018-02-16T18:50:20.805Z,54.04
2018-02-16T18:52:49.310Z,53.95
2018-02-16T18:55:17.790Z,53.65
2018-02-16T18:57:46.257Z,53.87
2018-02-16T19:00:14.766Z,53.91
2018-02-16T19:02:43.229Z,54.23
2018-02-16T19:05:11.718Z,54.41
2018-02-16T19:07:40.237Z,54.42
2018-02-16T19:10:08.702Z,54.43
2018-02-16T19:12:37.234Z,54.44
2018-02-16T19:15:05.706Z,54.38
2018-02-16T19:17:34.165Z,55.34
2018-02-16T19:20:02.666Z,55.59
2018-02-16T19:22:31.137Z,55.15
2018-02-16T19:24:59.655Z,55.58
2018-02-16T19:27:28.141Z,55.16
2018-02-16T19:29:56.657Z,55.23
2018-02-16T19:32:25.117Z,56.25
2018-02-16T19:34:53.662Z,55.16
2018-02-16T19:37:22.136Z,55.65
2018-02-16T19:39:50.637Z,55.35
2018-02-16T19:42:19.133Z,55.44
2018-02-16T19:44:47.650Z,55.46
2018-02-16T19:47:16.117Z,55.40
2018-02-16T19:49:44.573Z,55.45
2018-02-16T19:52:13.066Z,55.40
2018-02-16T19:54:41.515Z,55.58
2018-02-16T19:57:09.979Z,55.67
2018-02-16T19:59:38.477Z,55.84
2018-02-16T20:02:06.941Z,55.85
2018-02-16T20:04:35.450Z,57.52
2018-02-16T20:07:03.910Z,56.53
2018-02-16T20:09:32.421Z,57.26
2018-02-16T20:12:00.885Z,57.28
2018-02-16T20:14:29.345Z,61.58
2018-02-16T20:16:57.856Z,61.60
2018-02-16T20:19:26.317Z,62.55
2018-02-16T20:21:54.790Z,60.87
2018-02-16T20:24:23.254Z,60.84
2018-02-16T20:26:51.749Z,64.22
2018-02-16T20:29:20.257Z,64.27
2018-02-16T20:31:48.739Z,60.95
2018-02-16T20:34:17.244Z,62.02
2018-02-16T20:36:45.723Z,61.88
2018-02-16T20:39:14.229Z,64.92
2018-02-16T20:41:42.714Z,65.95
2018-02-16T20:44:11.229Z,65.60
2018-02-16T20:46:39.778Z,64.53
2018-02-16T20:49:08.231Z,63.33
2018-02-16T20:51:36.733Z,61.89
2018-02-16T20:54:05.258Z,61.54
2018-02-16T20:56:33.769Z,61.14
2018-02-16T20:59:02.252Z,60.93
2018-02-16T21:01:30.753Z,60.66
2018-02-16T21:03:59.262Z,60.11
2018-02-16T21:06:27.745Z,60.60
2018-02-16T21:08:56.225Z,60.20
2018-02-16T21:11:24.730Z,60.74
2018-02-16T21:13:53.225Z,60.74
2018-02-16T21:16:21.728Z,59.94
2018-02-16T21:18:50.228Z,59.82
2018-02-16T21:21:18.737Z,59.53
2018-02-16T21:23:47.206Z,59.71
2018-02-16T21:26:15.748Z,59.38
2018-02-16T21:28:44.213Z,59.21
2018-02-16T21:31:12.714Z,59.30
2018-02-16T21:33:41.214Z,59.47
2018-02-16T21:36:09.737Z,59.09
2018-02-16T21:38:38.237Z,59.27
2018-02-16T21:41:06.715Z,60.26
2018-02-16T21:43:35.184Z,62.41
2018-02-16T21:46:03.693Z,62.12
2018-02-16T21:48:32.201Z,61.39
2018-02-16T21:51:00.683Z,65.47
2018-02-16T21:53:29.234Z,67.00
2018-02-16T21:55:57.712Z,64.46
2018-02-16T21:58:26.186Z,66.99
2018-02-16T22:00:54.695Z,67.93
2018-02-16T22:03:23.158Z,69.75
2018-02-16T22:05:51.669Z,69.89
2018-02-16T22:08:20.126Z,67.51
2018-02-16T22:10:48.625Z,66.63
2018-02-16T22:13:17.173Z,66.00
2018-02-16T22:15:45.649Z,67.21
2018-02-16T22:18:14.166Z,65.55
2018-02-16T22:20:42.662Z,67.30
2018-02-16T22:23:11.154Z,65.49
2018-02-16T22:25:39.653Z,64.05
2018-02-16T22:28:08.110Z,63.97
2018-02-16T22:30:36.581Z,63.92
2018-02-16T22:33:05.070Z,63.46
2018-02-16T22:35:33.521Z,66.50
2018-02-16T22:38:01.982Z,63.25
2018-02-16T22:40:30.463Z,62.94
2018-02-16T22:42:58.922Z,62.48
2018-02-16T22:45:27.420Z,62.24
2018-02-16T22:47:55.903Z,62.97
2018-02-16T22:50:24.361Z,61.82
2018-02-16T22:52:52.907Z,61.74
2018-02-16T22:55:21.374Z,61.92
2018-02-16T22:57:49.846Z,62.36
2018-02-16T23:00:18.393Z,62.61
2018-02-16T23:02:46.898Z,62.64
2018-02-16T23:05:15.418Z,62.65
2018-02-16T23:07:43.937Z,64.62
2018-02-16T23:10:12.406Z,66.24
2018-02-16T23:12:40.886Z,64.17
2018-02-16T23:15:09.388Z,67.12
2018-02-16T23:17:37.850Z,66.26
2018-02-16T23:20:06.370Z,65.82
2018-02-16T23:22:34.832Z,68.22
2018-02-16T23:25:03.290Z,65.12
2018-02-16T23:27:31.787Z,64.61
2018-02-16T23:30:00.337Z,64.41
2018-02-16T23:32:28.809Z,64.27
2018-02-16T23:34:57.310Z,64.60
2018-02-16T23:37:25.891Z,66.04
2018-02-16T23:39:54.353Z,68.47
2018-02-16T23:42:22.846Z,66.92
2018-02-16T23:44:51.338Z,66.05
2018-02-16T23:47:19.844Z,65.00
2018-02-16T23:49:48.346Z,64.39
2018-02-16T23:52:16.810Z,65.48
2018-02-16T23:54:45.318Z,65.65
2018-02-16T23:57:13.806Z,66.21
2018-02-16T23:59:42.307Z,64.58
